Time;durP1;ratioP1;P1;durP2;ratioP2;P2;SDS_P1;SDS_P2;PMS_P1;PMS_P2;Temp;Humidity;BMP_temperature;BMP_pressure;BME280_temperature;BME280_humidity;BME280_pressure;Samples;Min_cycle;Max_cycle;Signal;HPM_P1;HPM_P2
2022/11/24 00:00:00;;;;;;;8.43;3.08;;;7.10;86.00;;;5.54;100.00;95204.97;4948080;28;20029;-64
2022/11/24 00:02:28;;;;;;;9.40;3.20;;;7.20;85.80;;;5.56;100.00;95213.41;4947587;28;20095;-64
2022/11/24 00:04:54;;;;;;;6.68;2.33;;;7.20;85.90;;;5.58;100.00;95211.44;4948492;28;20025;-64
2022/11/24 00:07:19;;;;;;;8.15;2.83;;;7.20;85.90;;;5.62;100.00;95214.47;4947501;28;20336;-64
2022/11/24 00:09:45;;;;;;;6.15;2.58;;;7.30;85.90;;;5.63;100.00;95218.72;4964267;28;20306;-64
2022/11/24 00:12:11;;;;;;;8.27;2.40;;;7.20;85.80;;;5.65;100.00;95227.16;4948427;28;20388;-64
2022/11/24 00:14:37;;;;;;;7.03;2.63;;;7.30;86.20;;;5.65;100.00;95224.56;4947189;28;20319;-65
2022/11/24 00:17:03;;;;;;;6.47;2.70;;;7.20;86.10;;;5.67;100.00;95238.25;4967167;28;20103;-65
2022/11/24 00:19:29;;;;;;;3.72;2.30;;;7.20;86.00;;;5.66;100.00;95229.63;4948085;28;20578;-64
2022/11/24 00:21:55;;;;;;;6.90;2.80;;;7.20;85.90;;;5.68;100.00;95235.47;4932294;28;20129;-64
2022/11/24 00:24:21;;;;;;;5.47;2.30;;;7.30;85.90;;;5.68;100.00;95243.28;4948474;28;20056;-64
2022/11/24 00:26:47;;;;;;;5.20;2.20;;;7.30;86.00;;;5.70;100.00;95245.72;4947675;28;20412;-64
2022/11/24 00:29:12;;;;;;;8.15;2.83;;;7.40;86.10;;;5.70;100.00;95243.13;4964844;28;20410;-64
2022/11/24 00:31:40;;;;;;;8.50;2.55;;;7.30;86.00;;;5.70;100.00;95251.75;4931428;28;20203;-64
2022/11/24 00:34:12;;;;;;;6.63;2.42;;;7.30;85.90;;;5.69;100.00;95244.91;4947874;28;20029;-64
2022/11/24 00:36:38;;;;;;;9.35;2.63;;;7.40;85.70;;;5.72;100.00;95264.63;4933004;28;20041;-64
2022/11/24 00:39:10;;;;;;;8.60;2.38;;;7.40;85.50;;;5.73;100.00;95280.09;4931755;28;20037;-65
2022/11/24 00:41:36;;;;;;;8.23;2.53;;;7.40;85.70;;;5.72;100.00;95280.28;4950885;28;20055;-65
2022/11/24 00:44:02;;;;;;;5.32;2.75;;;7.30;86.00;;;5.72;100.00;95277.66;4967568;28;20359;-64
2022/11/24 00:46:28;;;;;;;5.03;2.53;;;7.40;86.00;;;5.71;100.00;95284.69;4966598;28;20032;-64
2022/11/24 00:48:54;;;;;;;7.68;2.80;;;7.30;85.90;;;5.70;100.00;95287.47;4934921;28;20379;-64
2022/11/24 00:51:23;;;;;;;7.40;2.88;;;7.30;86.00;;;5.71;100.00;95294.31;4950408;28;20037;-64
2022/11/24 00:53:49;;;;;;;8.23;2.50;;;7.40;86.00;;;5.71;100.00;95296.91;4951915;28;20059;-64
2022/11/24 00:56:15;;;;;;;7.72;2.83;;;7.30;86.00;;;5.69;100.00;95302.31;4950801;28;20250;-64
2022/11/24 00:58:41;;;;;;;5.60;2.33;;;7.30;86.00;;;5.71;100.00;95305.56;4949960;28;20471;-64
2022/11/24 01:01:12;;;;;;;7.30;2.42;;;7.40;86.10;;;5.73;100.00;95307.97;4967318;28;20037;-65
2022/11/24 01:03:38;;;;;;;6.70;2.53;;;7.50;85.80;;;5.73;100.00;95313.19;4952855;28;20082;-65
2022/11/24 01:06:11;;;;;;;5.75;2.35;;;7.40;85.60;;;5.71;100.00;95316.00;4950929;28;20036;-64
2022/11/24 01:08:37;;;;;;;8.40;2.42;;;7.30;85.80;;;5.70;100.00;95319.59;4951013;28;20029;-63
2022/11/24 01:11:14;;;;;;;7.28;2.65;;;7.30;85.80;;;5.70;100.00;95324.81;4934609;28;20029;-64
2022/11/24 01:13:40;;;;;;;7.00;2.28;;;7.30;85.80;;;5.70;100.00;95335.25;4967624;28;20037;-64
2022/11/24 01:16:12;;;;;;;7.47;2.20;;;7.40;85.20;;;5.70;100.00;95326.59;4951259;28;20110;-64
2022/11/24 01:18:37;;;;;;;6.70;2.30;;;7.30;85.00;;;5.70;100.00;95331.81;4950705;28;20602;-64
2022/11/24 01:21:04;;;;;;;9.00;2.70;;;7.30;85.10;;;5.69;100.00;95333.63;4969772;28;20028;-64
2022/11/24 01:23:30;;;;;;;8.02;2.65;;;7.30;85.10;;;5.67;100.00;95347.84;4992734;28;20025;-65
2022/11/24 01:25:56;;;;;;;7.30;2.72;;;7.30;85.10;;;5.66;100.00;95348.78;4950918;28;20033;-64
2022/11/24 01:28:22;;;;;;;6.88;2.40;;;7.20;85.20;;;5.63;100.00;95338.72;4949180;28;20324;-64
2022/11/24 01:31:03;;;;;;;8.40;2.58;;;7.20;85.10;;;5.60;100.00;95339.06;4950261;28;20471;-64
2022/11/24 01:33:29;;;;;;;10.60;2.45;;;7.20;85.30;;;5.57;100.00;95350.69;4950599;28;20563;-65
2022/11/24 01:35:56;;;;;;;6.22;2.30;;;7.10;85.20;;;5.56;100.00;95353.47;4950991;28;20067;-65
2022/11/24 01:38:22;;;;;;;9.50;3.03;;;7.10;85.70;;;5.54;100.00;95357.06;4949224;28;20030;-65
2022/11/24 01:40:48;;;;;;;11.30;3.13;;;7.20;85.50;;;5.53;100.00;95359.84;4966671;28;20043;-64
2022/11/24 01:43:20;;;;;;;5.80;2.55;;;7.10;85.50;;;5.53;100.00;95363.25;4984383;28;20029;-65
2022/11/24 01:45:46;;;;;;;7.05;2.47;;;7.20;85.60;;;5.52;100.00;95366.84;4950160;28;20207;-64
2022/11/24 01:48:26;;;;;;;9.10;2.67;;;7.10;85.40;;;5.52;100.00;95369.47;4949911;28;20045;-64
2022/11/24 01:50:59;;;;;;;9.95;2.33;;;7.20;85.40;;;5.51;100.00;95380.88;4929836;28;20034;-64
2022/11/24 01:53:25;;;;;;;10.65;2.65;;;7.10;85.30;;;5.50;100.00;95384.47;4960472;28;20033;-64
2022/11/24 01:55:50;;;;;;;7.30;2.20;;;7.10;85.20;;;5.50;100.00;95392.31;4966545;28;20346;-64
2022/11/24 01:58:23;;;;;;;5.18;1.90;;;7.10;85.10;;;5.49;100.00;95382.88;4933926;28;20453;-64
2022/11/24 02:00:49;;;;;;;7.13;2.05;;;7.10;85.10;;;5.50;100.00;95387.09;4934023;28;20182;-66
2022/11/24 02:03:17;;;;;;;7.63;2.15;;;7.10;85.10;;;5.50;100.00;95394.91;4934455;28;20453;-64
2022/11/24 02:06:04;;;;;;;4.68;2.30;;;7.10;85.10;;;5.50;100.00;95389.69;4949701;28;20033;-64
2022/11/24 02:08:55;;;;;;;7.25;2.40;;;7.10;84.90;;;5.49;100.00;95393.28;4943317;28;20119;-65
2022/11/24 02:11:22;;;;;;;6.05;2.00;;;7.10;84.70;;;5.46;100.00;95401.47;4956208;28;20563;-65
2022/11/24 02:13:48;;;;;;;5.57;2.08;;;7.10;84.90;;;5.45;100.00;95402.47;4950168;28;20075;-65
2022/11/24 02:16:13;;;;;;;6.32;2.53;;;7.00;85.00;;;5.43;100.00;95407.03;4949757;28;20354;-65
2022/11/24 02:18:40;;;;;;;8.43;2.20;;;7.00;84.90;;;5.42;100.00;95405.38;4949045;28;20341;-65
2022/11/24 02:21:06;;;;;;;7.35;2.38;;;7.00;85.00;;;5.43;100.00;95417.47;4949671;28;20032;-65
2022/11/24 02:23:41;;;;;;;7.40;2.17;;;7.10;84.80;;;5.44;100.00;95408.66;4949065;28;20033;-64
2022/11/24 02:26:32;;;;;;;5.88;2.05;;;7.10;84.80;;;5.44;100.00;95424.31;4983858;28;20041;-65
2022/11/24 02:28:58;;;;;;;11.73;2.00;;;7.10;84.70;;;5.45;100.00;95418.09;4948377;28;20163;-65
2022/11/24 02:31:24;;;;;;;6.05;2.17;;;7.10;84.30;;;5.45;100.00;95425.13;4949193;28;20041;-65
2022/11/24 02:33:50;;;;;;;5.28;1.58;;;7.10;84.60;;;5.47;100.00;95428.38;4949860;28;20283;-65
2022/11/24 02:36:15;;;;;;;7.30;1.83;;;7.10;84.30;;;5.47;100.00;95423.97;4945755;28;20231;-65
2022/11/24 02:38:41;;;;;;;6.05;1.90;;;7.10;84.30;;;5.47;100.00;95418.75;4983427;28;20207;-64
2022/11/24 02:41:10;;;;;;;5.65;1.63;;;7.10;84.10;;;5.48;100.00;95420.38;4948669;28;20342;-65
2022/11/24 02:43:44;;;;;;;6.72;1.55;;;7.10;84.00;;;5.49;100.00;95429.81;4933422;28;20099;-67
2022/11/24 02:46:10;;;;;;;10.10;1.70;;;7.10;84.30;;;5.51;100.00;95430.44;4932758;28;20033;-65
2022/11/24 02:48:37;;;;;;;4.57;1.17;;;7.10;83.90;;;5.53;100.00;95436.28;4954457;28;20349;-65
2022/11/24 02:51:03;;;;;;;4.00;1.33;;;7.20;83.80;;;5.54;100.00;95427.47;4948731;28;20029;-65
2022/11/24 02:53:29;;;;;;;6.55;1.33;;;7.20;83.80;;;5.54;100.00;95440.53;4949217;28;20029;-65
2022/11/24 02:55:55;;;;;;;4.05;1.20;;;7.20;83.80;;;5.54;100.00;95445.75;4948698;28;20207;-65
2022/11/24 02:58:21;;;;;;;5.82;1.48;;;7.10;83.60;;;5.55;100.00;95446.56;4947545;28;20567;-65
2022/11/24 03:00:47;;;;;;;6.18;1.27;;;7.10;83.70;;;5.54;100.00;95448.34;4951684;28;20029;-65
2022/11/24 03:03:13;;;;;;;5.55;1.60;;;7.10;83.50;;;5.56;100.00;95444.75;4951088;28;20032;-65
2022/11/24 03:05:39;;;;;;;5.88;1.60;;;7.20;83.80;;;5.56;100.00;95447.38;4949396;28;20359;-64
2022/11/24 03:08:04;;;;;;;7.00;1.55;;;7.20;83.40;;;5.55;100.00;95451.78;4965288;28;20265;-65
2022/11/24 03:10:30;;;;;;;3.78;1.30;;;7.10;83.40;;;5.56;100.00;95457.78;4947449;28;20380;-65
2022/11/24 03:12:56;;;;;;;5.28;1.73;;;7.10;83.50;;;5.53;100.00;95454.56;4931993;28;20359;-65
2022/11/24 03:15:22;;;;;;;4.72;1.27;;;7.10;83.40;;;5.54;100.00;95471.03;4933320;28;20351;-65
2022/11/24 03:17:49;;;;;;;3.22;1.00;;;7.20;83.30;;;5.54;100.00;95474.44;4948195;28;20037;-65
2022/11/24 03:20:15;;;;;;;6.22;1.38;;;7.10;83.40;;;5.56;100.00;95470.84;4963848;28;20114;-65
2022/11/24 03:22:41;;;;;;;6.32;2.33;;;7.20;83.20;;;5.54;100.00;95466.63;4947624;28;20025;-65
2022/11/24 03:25:08;;;;;;;8.40;3.08;;;7.20;83.10;;;5.54;100.00;95471.81;4948590;28;20487;-65
2022/11/24 03:27:34;;;;;;;3.78;1.30;;;7.20;83.10;;;5.54;100.00;95466.63;4949728;28;20782;-65
2022/11/24 03:30:00;;;;;;;3.78;1.02;;;7.20;83.20;;;5.57;100.00;95475.06;4963303;28;20170;-64
2022/11/24 03:32:25;;;;;;;2.63;0.90;;;7.20;83.10;;;5.57;100.00;95475.06;4932355;28;20355;-64
2022/11/24 03:34:51;;;;;;;3.90;1.08;;;7.20;83.20;;;5.56;100.00;95483.88;4948051;28;20359;-64
2022/11/24 03:37:17;;;;;;;5.93;0.98;;;7.10;83.10;;;5.54;100.00;95482.25;4932291;28;20287;-64
2022/11/24 03:39:43;;;;;;;4.60;1.08;;;7.10;83.30;;;5.57;100.00;95485.50;4933391;28;20307;-65
2022/11/24 03:42:09;;;;;;;2.47;0.90;;;7.20;83.20;;;5.58;100.00;95487.13;4931907;28;20416;-64
2022/11/24 03:44:35;;;;;;;3.95;0.95;;;7.20;83.30;;;5.58;100.00;95497.56;4948299;28;20347;-64
2022/11/24 03:47:01;;;;;;;2.13;0.70;;;7.20;83.10;;;5.59;100.00;95496.56;4916035;28;20486;-64
2022/11/24 03:49:26;;;;;;;3.42;0.90;;;7.20;83.30;;;5.62;100.00;95509.28;4949060;28;20065;-65
2022/11/24 03:51:52;;;;;;;2.45;0.80;;;7.20;83.40;;;5.64;100.00;95507.31;4982402;28;20033;-64
2022/11/24 03:54:18;;;;;;;5.00;1.67;;;7.30;83.30;;;5.64;100.00;95509.91;4964498;28;20336;-64
2022/11/24 03:56:44;;;;;;;11.27;5.85;;;7.30;83.40;;;5.66;100.00;95510.53;4947244;28;20372;-64
2022/11/24 03:59:10;;;;;;;4.75;0.98;;;7.40;83.30;;;5.67;100.00;95515.63;4948269;28;20351;-64
2022/11/24 04:01:36;;;;;;;1.75;0.90;;;7.40;83.20;;;5.68;100.00;95519.03;4980143;28;20211;-64
2022/11/24 04:04:01;;;;;;;2.58;0.80;;;7.40;83.20;;;5.70;100.00;95523.09;4982938;28;20477;-64
2022/11/24 04:06:27;;;;;;;4.10;0.68;;;7.40;83.40;;;5.70;100.00;95527.50;4979436;28;20398;-64
2022/11/24 04:08:53;;;;;;;4.90;0.75;;;7.40;83.50;;;5.70;100.00;95524.91;4980755;28;20029;-64
2022/11/24 04:14:04;;;;;;;2.10;0.77;;;7.40;83.40;;;5.70;100.00;95512.66;4969014;28;20310;-64
2022/11/24 04:16:29;;;;;;;3.60;0.73;;;7.40;83.20;;;5.71;100.00;95519.50;4964597;28;20431;-64
2022/11/24 04:18:55;;;;;;;3.97;0.80;;;7.40;83.20;;;5.71;100.00;95508.25;4986050;28;20291;-64
2022/11/24 04:21:21;;;;;;;3.90;1.00;;;7.30;83.20;;;5.71;100.00;95519.50;4952425;28;20351;-64
2022/11/24 04:23:47;;;;;;;3.05;0.80;;;7.40;83.30;;;5.71;100.00;95518.69;4940125;28;20386;-64
2022/11/24 04:26:13;;;;;;;3.58;0.88;;;7.40;83.00;;;5.71;100.00;95519.50;4935304;28;20400;-64
2022/11/24 04:28:39;;;;;;;5.88;1.73;;;7.40;83.30;;;5.71;100.00;95521.31;4951364;28;20167;-64
2022/11/24 04:31:05;;;;;;;13.38;5.82;;;7.40;83.10;;;5.72;100.00;95526.34;4935197;28;20355;-64
2022/11/24 04:33:31;;;;;;;6.05;3.67;;;7.50;83.70;;;5.74;100.00;95531.38;4935153;28;20037;-64
2022/11/24 04:35:57;;;;;;;7.88;2.30;;;7.50;83.60;;;5.75;100.00;95533.81;4953575;28;20118;-64
2022/11/24 04:38:23;;;;;;;5.07;0.73;;;7.50;83.70;;;5.76;100.00;95535.44;4937114;28;20327;-64
2022/11/24 04:40:49;;;;;;;6.10;1.90;;;7.50;82.90;;;5.78;100.00;95540.50;4952516;28;20461;-65
2022/11/24 04:43:17;;;;;;;4.45;1.50;;;7.50;83.10;;;5.80;100.00;95541.94;4935501;28;20283;-64
2022/11/24 04:45:43;;;;;;;2.75;0.82;;;7.60;83.70;;;5.83;100.00;95540.78;4952730;28;20044;-64
2022/11/24 04:48:09;;;;;;;5.80;2.40;;;7.70;83.30;;;5.84;100.00;95540.59;4919159;28;20347;-64
2022/11/24 04:50:36;;;;;;;8.43;2.60;;;7.60;83.10;;;5.85;100.00;95537.00;4934170;28;20037;-64
2022/11/24 04:53:02;;;;;;;3.03;1.08;;;7.60;83.20;;;5.85;100.00;95541.41;4935660;28;20110;-64
2022/11/24 04:55:28;;;;;;;4.22;0.80;;;7.60;82.90;;;5.87;100.00;95543.84;4937748;28;20059;-64
2022/11/24 04:57:53;;;;;;;4.40;0.95;;;7.60;83.10;;;5.87;100.00;95544.66;4967422;28;20470;-65
2022/11/24 05:00:20;;;;;;;3.78;0.90;;;7.60;83.20;;;5.87;100.00;95552.50;4910578;28;20392;-64
2022/11/24 05:02:46;;;;;;;3.10;0.98;;;7.50;83.20;;;5.87;100.00;95549.88;4971868;28;20025;-67
2022/11/24 05:05:12;;;;;;;4.65;0.73;;;7.50;83.10;;;5.88;100.00;95554.13;4954229;28;20146;-65
2022/11/24 05:07:38;;;;;;;4.47;1.08;;;7.60;83.00;;;5.89;100.00;95550.56;4970735;28;20354;-66
2022/11/24 05:12:55;;;;;;;4.28;1.52;;;7.60;82.90;;;5.91;100.00;95563.44;4976113;28;20043;-64
2022/11/24 05:15:22;;;;;;;4.07;1.20;;;7.50;83.30;;;5.91;100.00;95563.44;4954276;28;20032;-65
2022/11/24 05:17:48;;;;;;;8.65;2.30;;;7.60;83.10;;;5.92;100.00;95565.88;4954651;28;20043;-64
2022/11/24 05:20:14;;;;;;;4.05;1.35;;;7.60;82.90;;;5.93;100.00;95575.34;4955024;28;20033;-65
2022/11/24 05:22:40;;;;;;;3.13;1.00;;;7.60;82.50;;;5.94;100.00;95584.00;4914312;28;20434;-65
2022/11/24 05:25:06;;;;;;;4.97;1.23;;;7.60;82.80;;;5.94;100.00;95584.78;4966904;28;20037;-65
2022/11/24 05:27:32;;;;;;;4.03;1.05;;;7.60;82.90;;;5.94;100.00;95587.41;4931641;28;20029;-64
2022/11/24 05:29:57;;;;;;;5.50;1.20;;;7.70;82.80;;;5.95;100.00;95590.84;4965133;28;20303;-64
2022/11/24 05:32:23;;;;;;;8.50;3.25;;;7.60;82.80;;;5.93;100.00;95585.78;4963049;28;20351;-64
2022/11/24 05:34:49;;;;;;;6.85;2.50;;;7.60;83.00;;;5.94;100.00;95587.41;4932649;28;20403;-63
2022/11/24 05:37:15;;;;;;;4.80;1.60;;;7.60;83.00;;;5.95;100.00;95599.47;4930241;28;20387;-63
2022/11/24 05:39:41;;;;;;;6.28;2.05;;;7.60;83.10;;;5.96;100.00;95601.09;4946395;28;20072;-65
2022/11/24 05:44:52;;;;;;;3.65;1.67;;;7.60;83.00;;;5.96;100.00;95595.88;4934534;28;20130;-64
2022/11/24 05:47:18;;;;;;;9.30;1.65;;;7.70;83.10;;;5.97;100.00;95592.28;4931639;28;20033;-64
2022/11/24 05:49:44;;;;;;;5.53;1.10;;;7.60;83.00;;;5.97;100.00;95594.06;4931402;28;20587;-63
2022/11/24 05:52:10;;;;;;;9.98;1.75;;;7.60;83.20;;;5.96;100.00;95598.50;4930485;28;20037;-64
2022/11/24 05:54:36;;;;;;;6.00;1.73;;;7.60;83.20;;;5.97;100.00;95605.34;4939773;28;20038;-63
2022/11/24 05:57:02;;;;;;;7.63;1.95;;;7.60;83.10;;;5.97;100.00;95607.94;4962529;28;20452;-64
2022/11/24 05:59:28;;;;;;;5.10;1.55;;;7.60;83.00;;;5.97;100.00;95607.94;4922039;28;20167;-63
2022/11/24 06:01:54;;;;;;;4.60;1.38;;;7.60;83.20;;;5.98;100.00;95608.75;4909192;28;20339;-66
2022/11/24 06:04:20;;;;;;;11.70;2.40;;;7.60;82.90;;;5.99;100.00;95610.38;4880676;28;20368;-65
2022/11/24 06:06:46;;;;;;;7.55;1.90;;;7.60;82.70;;;6.00;100.00;95623.25;4864757;28;20304;-66
2022/11/24 06:09:12;;;;;;;9.30;1.73;;;7.60;83.30;;;6.01;100.00;95619.66;4869759;28;20314;-66
2022/11/24 06:11:38;;;;;;;8.98;1.80;;;7.60;82.80;;;6.03;100.00;95622.91;4873230;28;20407;-66
2022/11/24 06:14:05;;;;;;;6.65;1.92;;;7.60;82.50;;;6.04;100.00;95628.94;4875329;28;20311;-65
2022/11/24 06:16:31;;;;;;;9.43;1.95;;;7.60;82.30;;;6.05;100.00;95635.78;4875495;28;20798;-66
2022/11/24 06:18:57;;;;;;;8.07;1.77;;;7.70;82.40;;;6.04;100.00;95634.97;4872196;28;20460;-66
2022/11/24 06:21:23;;;;;;;8.20;1.30;;;7.60;82.30;;;6.05;100.00;95641.81;4888424;28;20380;-63
2022/11/24 06:23:49;;;;;;;7.13;1.70;;;7.70;82.10;;;6.08;100.00;95648.50;4872973;28;20452;-64
2022/11/24 06:26:17;;;;;;;7.40;1.50;;;7.70;81.90;;;6.07;100.00;95633.81;4876813;28;20343;-66
2022/11/24 06:28:43;;;;;;;7.10;1.75;;;7.70;81.80;;;6.09;100.00;95647.50;4875048;28;20953;-66
2022/11/24 06:31:09;;;;;;;11.35;3.15;;;7.70;81.80;;;6.10;100.00;95641.31;4920229;28;20301;-66
2022/11/24 06:33:36;;;;;;;9.80;3.80;;;7.70;81.90;;;6.12;100.00;95648.00;4929955;28;20037;-66
2022/11/24 06:36:07;;;;;;;7.57;2.03;;;7.70;82.10;;;6.14;100.00;95647.81;4946631;28;20037;-64
2022/11/24 06:38:34;;;;;;;9.25;2.28;;;7.80;81.60;;;6.16;100.00;95652.88;4902399;28;20306;-70
2022/11/24 06:41:08;;;;;;;12.23;2.72;;;7.80;81.50;;;6.17;100.00;95649.28;4881156;28;20312;-69
2022/11/24 06:43:34;;;;;;;7.63;1.92;;;7.80;81.40;;;6.18;100.00;95656.13;4908386;28;20752;-67
2022/11/24 06:46:01;;;;;;;8.48;2.08;;;7.80;81.30;;;6.18;100.00;95650.91;4893058;28;20552;-67
2022/11/24 06:48:27;;;;;;;9.98;1.40;;;7.70;81.30;;;6.19;100.00;95662.97;4888234;28;20610;-68
2022/11/24 06:50:53;;;;;;;8.23;1.35;;;7.80;81.50;;;6.20;100.00;95654.16;4881710;28;20578;-67
2022/11/24 06:53:19;;;;;;;8.23;1.90;;;7.80;81.40;;;6.21;100.00;95653.16;4894516;28;20436;-70
2022/11/24 06:55:45;;;;;;;8.93;1.95;;;7.80;81.10;;;6.22;100.00;95657.41;4894396;28;20303;-68
2022/11/24 06:58:11;;;;;;;7.72;1.83;;;7.90;80.80;;;6.23;100.00;95656.41;4876389;28;20352;-68
2022/11/24 07:00:38;;;;;;;9.68;1.92;;;7.80;80.60;;;6.23;100.00;95661.63;4899818;28;20322;-66
2022/11/24 07:03:04;;;;;;;7.82;1.60;;;7.80;80.50;;;6.25;100.00;95657.06;4892840;28;20370;-67
2022/11/24 07:05:30;;;;;;;6.63;1.67;;;7.80;80.70;;;6.25;100.00;95654.44;4909714;28;20510;-67
2022/11/24 07:07:59;;;;;;;10.05;1.55;;;7.90;80.40;;;6.26;100.00;95659.50;4892081;28;20483;-68
2022/11/24 07:10:25;;;;;;;10.93;1.80;;;7.90;80.40;;;6.28;100.00;95656.69;4897659;28;20378;-68
2022/11/24 07:12:51;;;;;;;6.68;1.83;;;7.90;80.00;;;6.29;100.00;95658.31;4895056;28;20379;-68
2022/11/24 07:15:17;;;;;;;9.15;2.30;;;8.00;79.80;;;6.29;100.00;95668.78;4876003;28;20363;-67
2022/11/24 07:17:43;;;;;;;8.35;1.73;;;7.90;80.10;;;6.29;100.00;95661.75;4893764;28;20336;-68
2022/11/24 07:20:09;;;;;;;8.50;1.80;;;7.90;80.00;;;6.29;100.00;95669.59;4891748;28;20804;-65
2022/11/24 07:22:35;;;;;;;7.22;1.58;;;8.00;80.00;;;6.32;100.00;95668.44;4952436;28;20356;-67
2022/11/24 07:25:06;;;;;;;9.20;1.90;;;8.00;79.80;;;6.36;100.00;95670.53;4896151;28;20317;-67
2022/11/24 07:27:32;;;;;;;6.90;1.52;;;8.10;79.70;;;6.38;100.00;95678.22;4880476;28;20625;-67
2022/11/24 07:29:58;;;;;;;8.50;1.38;;;8.10;79.50;;;6.41;100.00;95683.09;4896877;28;20354;-64
2022/11/24 07:32:24;;;;;;;8.85;1.70;;;8.10;79.20;;;6.42;100.00;95674.25;4892167;28;20487;-68
2022/11/24 07:34:50;;;;;;;4.93;1.58;;;8.10;79.20;;;6.41;100.00;95678.66;4891356;28;20320;-67
2022/11/24 07:37:16;;;;;;;10.95;1.67;;;8.10;79.10;;;6.41;100.00;95680.47;4887653;28;20339;-66
2022/11/24 07:39:45;;;;;;;9.68;1.90;;;8.10;78.70;;;6.42;100.00;95679.47;4886988;28;20415;-67
2022/11/24 07:42:11;;;;;;;7.50;2.15;;;8.20;78.70;;;6.44;100.00;95680.13;4886768;28;20362;-65
2022/11/24 07:44:39;;;;;;;9.90;2.25;;;8.20;78.80;;;6.46;100.00;95685.97;4872605;28;20348;-70
2022/11/24 07:47:05;;;;;;;11.23;2.40;;;8.20;78.20;;;6.48;100.00;95688.41;4904113;28;20387;-66
2022/11/24 07:49:32;;;;;;;7.70;2.15;;;8.30;78.10;;;6.51;100.00;95677.63;4911096;28;20555;-70
2022/11/24 07:51:59;;;;;;;25.25;4.43;;;8.30;77.80;;;6.54;100.00;95688.53;4913819;28;20234;-68
2022/11/24 07:54:25;;;;;;;11.02;1.77;;;8.40;77.70;;;6.57;100.00;95688.22;4909452;28;20359;-69
2022/11/24 07:56:51;;;;;;;6.90;1.77;;;8.40;77.10;;;6.59;100.00;95686.22;4906273;28;20316;-64
2022/11/24 07:59:17;;;;;;;10.05;1.83;;;8.40;77.40;;;6.65;100.00;95689.94;4883536;28;20359;-63
2022/11/24 08:01:43;;;;;;;8.02;1.48;;;8.50;77.00;;;6.68;100.00;95685.16;4894272;28;20571;-63
2022/11/24 08:04:10;;;;;;;7.85;1.67;;;8.60;76.50;;;6.72;100.00;95689.06;4878802;28;20695;-62
2022/11/24 08:06:36;;;;;;;13.95;1.83;;;8.60;76.20;;;6.76;100.00;95686.91;4877473;28;20512;-64
2022/11/24 08:09:02;;;;;;;11.07;1.58;;;8.60;76.20;;;6.80;100.00;95682.16;4879292;28;20351;-63
2022/11/24 08:11:30;;;;;;;8.95;1.80;;;8.60;76.00;;;6.84;100.00;95683.44;4894152;28;20322;-63
2022/11/24 08:13:56;;;;;;;9.02;1.83;;;8.70;75.60;;;6.90;100.00;95683.53;4896051;28;20338;-66
2022/11/24 08:16:22;;;;;;;5.93;1.30;;;8.80;75.60;;;6.97;100.00;95679.22;4888373;28;20299;-64
2022/11/24 08:18:53;;;;;;;6.43;1.77;;;8.90;75.00;;;7.06;100.00;95687.81;4893237;28;20915;-66
2022/11/24 08:21:19;;;;;;;8.13;1.90;;;9.10;74.40;;;7.15;100.00;95680.69;4881545;28;20273;-68
2022/11/24 08:23:45;;;;;;;8.68;1.88;;;9.20;74.00;;;7.26;100.00;95688.13;4912200;28;20393;-68
2022/11/24 08:26:16;;;;;;;8.27;1.83;;;9.40;73.50;;;7.40;100.00;95689.13;4898194;28;20594;-69
2022/11/24 08:28:43;;;;;;;7.05;1.65;;;9.60;73.20;;;7.55;100.00;95687.34;4879452;28;20635;-67
2022/11/24 08:31:15;;;;;;;10.05;2.08;;;9.90;71.70;;;7.70;100.00;95696.00;4879770;28;20338;-67
2022/11/24 08:33:42;;;;;;;8.05;1.50;;;10.00;70.90;;;7.87;100.00;95696.63;4883270;28;20509;-69
2022/11/24 08:36:14;;;;;;;8.40;2.00;;;10.40;69.90;;;8.04;100.00;95692.00;4886758;28;20433;-66
2022/11/24 08:38:40;;;;;;;8.70;1.80;;;10.50;69.20;;;8.18;100.00;95701.66;4879104;28;20698;-67
2022/11/24 08:41:12;;;;;;;8.73;1.80;;;10.60;69.10;;;8.33;100.00;95707.66;4886740;28;20372;-70
2022/11/24 08:43:39;;;;;;;9.50;1.90;;;10.70;68.70;;;8.41;100.00;95699.72;4888243;28;20322;-67
2022/11/24 08:46:09;;;;;;;8.48;1.70;;;10.60;68.20;;;8.49;100.00;95702.22;4931324;28;20056;-68
2022/11/24 08:48:35;;;;;;;8.55;2.08;;;10.60;68.30;;;8.55;99.75;95704.09;4913264;28;20563;-69
2022/11/24 08:51:13;;;;;;;6.95;1.98;;;10.60;67.70;;;8.65;96.78;95700.38;4879225;28;20573;-65
2022/11/24 08:53:40;;;;;;;9.70;2.13;;;10.80;67.00;;;8.70;97.72;95698.00;4876814;28;20395;-65
2022/11/24 08:56:06;;;;;;;11.45;2.53;;;10.80;66.50;;;8.76;96.52;95702.50;4883976;28;20279;-60
2022/11/24 08:58:32;;;;;;;9.80;2.20;;;10.90;66.30;;;8.80;96.01;95690.63;4946640;28;20648;-61
2022/11/24 09:01:10;;;;;;;13.35;2.50;;;11.00;66.00;;;8.91;94.94;95700.63;4948708;28;20575;-67
2022/11/24 09:03:39;;;;;;;10.68;2.22;;;11.40;65.70;;;9.04;96.38;95687.59;4869126;28;20535;-68
2022/11/24 09:06:06;;;;;;;8.85;1.85;;;11.70;64.20;;;9.22;95.61;95692.41;4870848;28;20335;-67
2022/11/24 09:08:32;;;;;;;8.38;2.08;;;12.00;63.10;;;9.39;93.04;95690.31;4856768;28;20316;-67
2022/11/24 09:11:03;;;;;;;6.90;1.92;;;12.20;62.30;;;9.56;91.53;95680.34;4868829;28;20344;-66
2022/11/24 09:13:29;;;;;;;;;;;12.70;61.00;;;9.72;88.93;95680.81;4884328;28;20530;-65
2022/11/24 09:15:55;;;;;;;8.05;1.70;;;13.00;59.30;;;9.86;92.71;95680.91;4890817;28;20353;-64
2022/11/24 09:18:21;;;;;;;8.18;1.80;;;12.70;59.50;;;9.91;90.54;95686.38;4895299;28;20421;-67
2022/11/24 09:20:47;;;;;;;5.57;1.30;;;12.50;60.70;;;9.94;90.52;95693.88;4885710;28;20552;-67
2022/11/24 09:23:14;;;;;;;7.47;1.45;;;12.40;60.80;;;9.96;89.10;95691.88;4879925;28;20810;-66
2022/11/24 09:25:40;;;;;;;6.88;1.80;;;12.50;60.50;;;9.98;88.85;95692.50;4891888;28;20403;-68
2022/11/24 09:28:06;;;;;;;5.43;1.50;;;12.80;58.90;;;10.08;87.94;95685.03;4880792;28;20196;-67
2022/11/24 09:30:32;;;;;;;8.75;1.60;;;13.00;57.70;;;10.13;86.81;95690.53;4879039;28;20306;-67
2022/11/24 09:32:58;;;;;;;8.32;1.95;;;12.90;59.10;;;10.23;86.21;95691.00;4891494;28;20896;-67
2022/11/24 09:35:24;;;;;;;6.43;1.75;;;13.00;58.70;;;10.31;87.32;95693.47;4884630;28;20392;-67
2022/11/24 09:37:50;;;;;;;6.03;1.70;;;12.90;59.30;;;10.41;86.45;95687.84;4894588;28;20312;-68
2022/11/24 09:40:16;;;;;;;7.82;1.73;;;13.00;59.40;;;10.49;85.84;95692.09;4878418;28;20301;-66
2022/11/24 09:43:00;;;;;;;7.03;1.70;;;13.00;58.90;;;10.52;82.83;95695.16;4877411;28;25499;-64
2022/11/24 09:45:27;;;;;;;6.32;1.75;;;12.80;59.10;;;10.48;83.26;95693.13;4895201;28;20643;-65
2022/11/24 09:48:06;;;;;;;7.55;1.70;;;12.40;59.20;;;10.38;81.91;95694.28;4910225;28;20354;-66
2022/11/24 09:50:38;;;;;;;9.90;1.75;;;12.20;59.90;;;10.34;82.95;95689.63;4883821;28;20295;-67
2022/11/24 09:53:36;;;;;;;7.85;2.08;;;12.20;60.70;;;10.27;81.71;95696.69;4900096;28;20497;-68
2022/11/24 09:56:21;;;;;;;7.97;1.85;;;12.00;61.10;;;10.14;81.27;95697.41;4916075;28;20362;-69
2022/11/24 09:58:53;;;;;;;8.60;1.60;;;11.80;61.70;;;10.04;82.72;95704.84;4882538;28;20486;-73
2022/11/24 10:01:33;;;;;;;7.47;1.52;;;11.60;62.30;;;10.03;83.04;95703.22;4928228;28;20188;-66
2022/11/24 10:03:59;;;;;;;6.22;1.40;;;12.00;62.10;;;10.00;83.94;95714.13;4895888;28;20365;-67
2022/11/24 10:06:37;;;;;;;8.82;1.92;;;11.90;61.80;;;10.00;83.46;95712.31;4876225;28;20449;-69
2022/11/24 10:09:15;;;;;;;8.35;1.98;;;11.90;61.70;;;10.04;83.98;95717.97;4928217;28;20477;-65
2022/11/24 10:12:00;;;;;;;8.52;1.73;;;12.10;62.10;;;10.08;83.94;95729.72;4926085;28;20320;-67
2022/11/24 10:14:52;;;;;;;6.78;1.40;;;12.10;61.50;;;10.04;81.56;95723.22;4910221;28;20366;-67
2022/11/24 10:18:07;;;;;;;6.05;1.60;;;11.70;61.20;;;9.92;81.42;95716.91;4879338;28;20553;-66
2022/11/24 10:21:01;;;;;;;6.72;1.25;;;11.50;62.80;;;9.78;83.48;95729.97;4903909;28;20511;-64
2022/11/24 10:23:50;;;;;;;5.47;1.45;;;11.10;63.90;;;9.66;84.05;95728.88;4928458;28;20676;-63
2022/11/24 10:26:31;;;;;;;4.03;1.02;;;11.00;65.90;;;9.52;86.24;95745.56;4911465;28;20468;-63
2022/11/24 10:28:57;;;;;;;6.07;1.50;;;10.80;66.80;;;9.35;85.55;95739.75;4874217;28;20394;-65
2022/11/24 10:31:30;;;;;;;6.82;1.30;;;10.50;67.30;;;9.23;86.73;95748.31;4882766;28;20450;-66
2022/11/24 10:34:17;;;;;;;3.90;0.98;;;10.50;67.70;;;9.09;89.16;95750.84;4956834;28;20693;-66
2022/11/24 10:37:09;;;;;;;6.70;1.30;;;10.20;69.40;;;8.91;92.01;95753.09;4909327;28;20368;-66